Time;durP1;ratioP1;P1;durP2;ratioP2;P2;SDS_P1;SDS_P2;PMS_P1;PMS_P2;Temp;Humidity;BMP_temperature;BMP_pressure;BME280_temperature;BME280_humidity;BME280_pressure;Samples;Min_cycle;Max_cycle;Signal;HPM_P1;HPM_P2
2022/11/16 00:01:50;;;;;;;14.80;10.30;;;10.00;99.90;;;;;;5073948;28;20045;-30
2022/11/16 00:04:16;;;;;;;16.90;10.35;;;10.00;99.90;;;;;;5073519;28;20530;-28
2022/11/16 00:06:41;;;;;;;15.15;11.02;;;9.90;99.90;;;;;;5073860;28;20110;-29
2022/11/16 00:09:21;;;;;;;19.20;11.10;;;10.00;99.90;;;;;;5073808;28;20123;-29
2022/11/16 00:11:52;;;;;;;16.52;11.98;;;9.90;99.90;;;;;;5073748;28;20048;-29
2022/11/16 00:14:19;;;;;;;14.90;11.85;;;10.00;99.90;;;;;;5073734;28;20132;-30
2022/11/16 00:16:45;;;;;;;15.95;12.55;;;10.00;99.90;;;;;;5056384;28;20055;-30
2022/11/16 00:19:12;;;;;;;13.90;11.32;;;10.00;99.90;;;;;;5073637;28;20040;-30
2022/11/16 00:21:38;;;;;;;15.27;12.43;;;10.00;99.90;;;;;;5073613;28;20049;-31
2022/11/16 00:24:04;;;;;;;15.43;12.38;;;10.10;99.90;;;;;;5073733;28;20052;-32
2022/11/16 00:26:30;;;;;;;20.17;13.55;;;10.00;99.90;;;;;;5073941;28;20055;-31
2022/11/16 00:28:56;;;;;;;19.60;13.25;;;10.00;99.90;;;;;;5074212;28;20041;-32
2022/11/16 00:31:22;;;;;;;17.33;12.75;;;9.90;99.90;;;;;;5073652;28;20137;-31
2022/11/16 00:33:48;;;;;;;21.52;14.70;;;10.10;99.90;;;;;;5073586;28;20041;-32
2022/11/16 00:36:15;;;;;;;16.58;14.10;;;10.10;99.90;;;;;;5072606;28;20056;-32
2022/11/16 00:38:40;;;;;;;20.90;14.70;;;10.10;99.90;;;;;;5074270;28;20033;-32
2022/11/16 00:41:08;;;;;;;17.42;13.82;;;10.10;99.90;;;;;;5073493;28;20048;-32
2022/11/16 00:43:34;;;;;;;17.70;14.23;;;10.10;99.90;;;;;;5072340;28;20044;-32
2022/11/16 00:46:00;;;;;;;18.73;14.65;;;10.10;99.90;;;;;;5073445;28;20040;-32
2022/11/16 00:48:26;;;;;;;21.63;14.65;;;10.10;99.90;;;;;;5073484;28;20042;-32
2022/11/16 00:50:52;;;;;;;20.80;14.27;;;10.20;99.90;;;;;;5073969;28;20432;-32
2022/11/16 00:53:19;;;;;;;21.88;15.45;;;10.20;99.90;;;;;;5056011;28;20040;-31
2022/11/16 00:55:45;;;;;;;24.55;16.42;;;10.20;99.90;;;;;;5073962;28;20048;-30
2022/11/16 00:58:12;;;;;;;20.40;15.40;;;10.20;99.90;;;;;;5073279;28;20128;-31
2022/11/16 01:00:38;;;;;;;26.20;16.90;;;10.10;99.90;;;;;;5072384;28;20052;-30
2022/11/16 01:03:04;;;;;;;22.13;16.48;;;10.10;99.90;;;;;;5073307;28;20056;-31
2022/11/16 01:05:30;;;;;;;23.48;16.73;;;10.30;99.90;;;;;;5072286;28;20195;-31
2022/11/16 01:07:56;;;;;;;20.67;16.80;;;10.10;99.90;;;;;;5073249;28;20045;-31
2022/11/16 01:10:24;;;;;;;26.05;18.02;;;10.10;99.90;;;;;;5072107;28;20056;-32
2022/11/16 01:12:51;;;;;;;23.73;16.63;;;10.20;99.90;;;;;;5073145;28;20127;-32
2022/11/16 01:15:18;;;;;;;26.85;18.15;;;10.20;99.90;;;;;;5073262;28;20044;-32
2022/11/16 01:17:44;;;;;;;26.52;18.08;;;10.10;99.90;;;;;;5076377;28;20123;-32
2022/11/16 01:20:14;;;;;;;24.77;17.00;;;10.10;99.90;;;;;;5076875;28;20044;-33
2022/11/16 01:22:41;;;;;;;29.67;18.80;;;10.10;99.90;;;;;;5077073;28;20055;-32
2022/11/16 01:25:07;;;;;;;29.95;18.40;;;10.10;99.90;;;;;;5076810;28;20048;-32
2022/11/16 01:27:33;;;;;;;28.88;18.98;;;10.10;99.90;;;;;;5076800;28;20051;-33
2022/11/16 01:29:59;;;;;;;24.55;18.42;;;10.10;99.90;;;;;;5059397;28;20131;-33
2022/11/16 01:32:25;;;;;;;28.70;18.58;;;10.10;99.90;;;;;;5077248;28;20050;-33
2022/11/16 01:34:51;;;;;;;25.60;19.10;;;10.10;99.90;;;;;;5075567;28;20137;-33
2022/11/16 01:37:18;;;;;;;26.00;19.27;;;10.10;99.90;;;;;;5075479;28;20524;-34
2022/11/16 01:39:44;;;;;;;28.50;18.92;;;10.00;99.90;;;;;;5075278;28;20040;-33
2022/11/16 01:42:21;;;;;;;24.88;18.40;;;10.10;99.90;;;;;;5075365;28;20041;-33
2022/11/16 01:44:46;;;;;;;29.98;19.77;;;10.10;99.90;;;;;;5075407;28;20135;-34
2022/11/16 01:47:14;;;;;;;25.23;17.70;;;10.20;99.90;;;;;;5076331;28;20087;-33
2022/11/16 01:49:55;;;;;;;27.80;18.92;;;10.10;99.90;;;;;;5076399;28;20045;-34
2022/11/16 01:52:24;;;;;;;25.77;17.98;;;10.20;99.90;;;;;;5077269;28;20052;-33
2022/11/16 01:54:52;;;;;;;27.35;18.98;;;10.20;99.90;;;;;;5076244;28;20135;-33
2022/11/16 01:57:26;;;;;;;27.20;17.40;;;10.20;99.90;;;;;;5041744;28;20178;-34
2022/11/16 01:59:56;;;;;;;27.05;18.33;;;10.10;99.90;;;;;;5076769;28;20045;-34
2022/11/16 02:02:22;;;;;;;29.45;19.27;;;10.10;99.90;;;;;;5075561;28;20131;-34
2022/11/16 02:04:51;;;;;;;26.38;18.30;;;10.20;99.90;;;;;;5076137;28;20131;-34
2022/11/16 02:09:52;;;;;;;25.50;17.58;;;10.30;99.90;;;;;;5076060;28;20091;-34
2022/11/16 02:10:58;;;;;;;24.48;17.83;;;10.10;99.90;;;;;;5076584;28;20063;-35
2022/11/16 02:14:04;;;;;;;29.40;18.40;;;10.20;99.90;;;;;;5075009;28;20051;-36
2022/11/16 02:16:35;;;;;;;31.83;16.92;;;10.30;99.90;;;;;;5058847;28;20432;-35
2022/11/16 02:19:10;;;;;;;27.98;17.92;;;10.30;99.90;;;;;;5057856;28;20047;-34
2022/11/16 02:21:44;;;;;;;24.45;17.52;;;10.30;99.90;;;;;;5075481;28;20461;-35
2022/11/16 02:24:34;;;;;;;;;;;10.30;99.90;;;;;;5076488;28;20102;-34
2022/11/16 02:27:30;;;;;;;19.40;13.75;;;10.40;99.90;;;;;;5075462;28;19928;-34
2022/11/16 02:29:56;;;;;;;25.52;16.67;;;10.20;99.90;;;;;;5075712;28;20045;-35
2022/11/16 02:32:47;;;;;;;24.38;15.35;;;10.20;99.90;;;;;;5075629;28;20044;-38
2022/11/16 02:35:36;;;;;;;25.42;16.65;;;10.20;99.90;;;;;;5075611;28;20102;-40
2022/11/16 02:38:09;;;;;;;22.00;15.02;;;10.30;99.90;;;;;;5075484;28;20136;-40
2022/11/16 02:40:39;;;;;;;23.90;16.48;;;10.40;99.90;;;;;;5076103;28;20044;-40
2022/11/16 02:43:10;;;;;;;23.75;14.70;;;10.40;99.90;;;;;;5075432;28;20049;-41
2022/11/16 02:45:41;;;;;;;21.23;14.98;;;10.20;99.90;;;;;;5075460;28;20132;-41
2022/11/16 02:48:32;;;;;;;20.60;15.35;;;10.40;99.90;;;;;;5075377;28;20040;-37
2022/11/16 02:50:58;;;;;;;24.33;15.55;;;10.40;99.90;;;;;;5074961;28;20556;-34
2022/11/16 02:53:24;;;;;;;22.50;15.50;;;10.20;99.90;;;;;;5073951;28;20092;-34
2022/11/16 02:55:50;;;;;;;24.92;14.50;;;10.30;99.90;;;;;;5075713;28;20127;-39
2022/11/16 02:58:22;;;;;;;25.45;15.90;;;10.40;99.90;;;;;;5075051;28;20461;-41
2022/11/16 03:01:11;;;;;;;19.30;13.60;;;10.40;99.90;;;;;;5075101;28;20082;-35
2022/11/16 03:03:45;;;;;;;22.75;14.65;;;10.40;99.90;;;;;;5075011;28;20055;-39
2022/11/16 03:06:23;;;;;;;21.17;14.10;;;10.40;99.90;;;;;;5074997;28;20095;-41
2022/11/16 03:09:07;;;;;;;23.08;14.90;;;10.20;99.90;;;;;;5073975;28;20095;-40
2022/11/16 03:14:27;;;;;;;21.77;14.23;;;10.20;99.90;;;;;;5074831;28;20052;-43
2022/11/16 03:16:56;;;;;;;24.63;14.55;;;10.30;99.90;;;;;;5075293;28;20463;-43
2022/11/16 03:19:33;;;;;;;24.38;15.10;;;10.50;99.90;;;;;;5073742;28;20040;-41
2022/11/16 03:22:10;;;;;;;20.00;14.57;;;10.30;99.90;;;;;;5073630;28;20060;-43
2022/11/16 03:24:37;;;;;;;22.25;14.75;;;10.40;99.90;;;;;;5075204;28;20131;-43
2022/11/16 03:27:20;;;;;;;30.42;16.08;;;10.40;99.90;;;;;;5074508;28;20555;-42
2022/11/16 03:29:51;;;;;;;26.95;15.20;;;10.40;99.90;;;;;;5073557;28;20052;-44
2022/11/16 03:32:29;;;;;;;24.95;15.90;;;10.20;99.90;;;;;;5074468;28;20045;-43
2022/11/16 03:35:00;;;;;;;26.45;15.15;;;10.30;99.90;;;;;;5074398;28;20056;-43
2022/11/16 03:37:27;;;;;;;26.23;15.93;;;10.50;99.90;;;;;;5074660;28;20402;-44
2022/11/16 03:39:55;;;;;;;27.70;15.38;;;10.40;99.90;;;;;;5073537;28;20051;-43
2022/11/16 03:42:25;;;;;;;24.42;15.40;;;10.40;99.90;;;;;;5074329;28;20056;-42
2022/11/16 03:44:52;;;;;;;26.60;15.82;;;10.20;99.90;;;;;;5057000;28;20116;-44
2022/11/16 03:47:18;;;;;;;24.92;16.10;;;10.40;99.90;;;;;;5074180;28;20127;-44
2022/11/16 03:49:47;;;;;;;31.55;16.58;;;10.40;99.90;;;;;;5074111;28;20080;-44
2022/11/16 03:52:16;;;;;;;24.95;16.05;;;10.30;99.90;;;;;;5074089;28;20055;-42
2022/11/16 03:54:42;;;;;;;32.97;17.40;;;10.20;99.90;;;;;;5073067;28;20044;-41
2022/11/16 03:57:14;;;;;;;30.67;15.27;;;10.20;99.90;;;;;;5074079;28;20052;-41
2022/11/16 03:59:41;;;;;;;33.03;15.88;;;10.30;99.90;;;;;;5074230;28;20119;-42
2022/11/16 04:02:07;;;;;;;34.47;17.48;;;10.20;99.90;;;;;;5073977;28;20048;-41
2022/11/16 04:29:13;;;;;;;34.83;19.30;;;10.40;99.90;;;;;;5073677;28;20044;-44
2022/11/16 04:39:57;;;;;;;35.53;18.90;;;10.40;99.90;;;;;;5073547;28;20049;-44
2022/11/16 04:42:23;;;;;;;38.17;20.75;;;10.10;99.90;;;;;;5073553;28;20052;-44
2022/11/16 04:47:33;;;;;;;31.95;19.90;;;10.20;99.90;;;;;;5074085;28;20186;-44
2022/11/16 04:49:58;;;;;;;39.13;20.63;;;10.10;99.90;;;;;;5074168;28;20119;-43
2022/11/16 04:52:24;;;;;;;36.83;21.73;;;10.30;99.90;;;;;;5076344;28;20153;-43
2022/11/16 04:54:50;;;;;;;37.70;21.25;;;10.30;99.90;;;;;;5077495;28;20051;-43
2022/11/16 04:57:15;;;;;;;41.83;21.92;;;10.30;99.90;;;;;;5077437;28;20044;-44
2022/11/16 04:59:41;;;;;;;45.30;23.42;;;10.30;99.90;;;;;;5077811;28;20409;-42
2022/11/16 05:02:07;;;;;;;42.70;23.33;;;10.10;99.90;;;;;;5077904;28;20047;-43
2022/11/16 05:04:33;;;;;;;38.95;22.25;;;10.10;99.90;;;;;;5077300;28;20094;-42
2022/11/16 05:06:59;;;;;;;38.13;22.38;;;10.20;99.90;;;;;;5077194;28;20510;-42
2022/11/16 05:09:27;;;;;;;46.10;24.58;;;10.10;99.90;;;;;;5077181;28;20043;-43
2022/11/16 05:11:53;;;;;;;45.72;24.27;;;10.10;99.90;;;;;;5077045;28;20045;-43
2022/11/16 05:14:19;;;;;;;35.58;22.80;;;10.00;99.90;;;;;;5077078;28;20044;-43
2022/11/16 05:16:44;;;;;;;34.72;22.77;;;10.10;99.90;;;;;;5077042;28;20459;-43
2022/11/16 05:21:54;;;;;;;40.35;22.38;;;10.30;99.90;;;;;;5077258;28;20102;-42
2022/11/16 05:24:32;;;;;;;38.15;23.80;;;10.10;99.90;;;;;;5077704;28;20056;-43
2022/11/16 05:26:59;;;;;;;44.42;24.92;;;10.40;99.90;;;;;;5061737;28;20101;-43
2022/11/16 05:29:24;;;;;;;37.10;23.30;;;10.40;99.90;;;;;;5076801;28;20448;-42
2022/11/16 05:31:50;;;;;;;40.78;22.90;;;10.40;99.90;;;;;;5077328;28;20093;-42
2022/11/16 05:34:16;;;;;;;41.92;23.48;;;10.40;99.90;;;;;;5076723;28;20079;-42
2022/11/16 05:36:41;;;;;;;46.40;25.05;;;10.30;99.90;;;;;;5076657;28;20048;-42
2022/11/16 05:39:07;;;;;;;43.03;23.73;;;10.40;99.90;;;;;;5075478;28;20041;-42
2022/11/16 05:41:33;;;;;;;40.08;22.98;;;10.40;99.90;;;;;;5076563;28;20128;-42
2022/11/16 05:43:59;;;;;;;43.83;25.55;;;10.30;99.90;;;;;;5076546;28;20044;-42
2022/11/16 05:46:25;;;;;;;43.63;24.85;;;10.40;99.90;;;;;;5075316;28;20048;-42
2022/11/16 05:48:50;;;;;;;46.95;26.95;;;10.10;99.90;;;;;;5076451;28;20479;-42
2022/11/16 05:51:16;;;;;;;41.17;25.73;;;10.60;99.90;;;;;;5076957;28;20045;-42
2022/11/16 05:53:43;;;;;;;43.20;25.80;;;10.20;99.90;;;;;;5075164;28;20045;-42
2022/11/16 05:56:10;;;;;;;40.78;24.42;;;10.10;99.90;;;;;;5076301;28;20071;-42
2022/11/16 05:58:36;;;;;;;41.53;24.27;;;10.00;99.90;;;;;;5074979;28;20079;-41
2022/11/16 06:01:02;;;;;;;41.50;25.58;;;10.50;99.90;;;;;;5076256;28;20080;-41
2022/11/16 06:03:29;;;;;;;48.40;25.60;;;10.20;99.90;;;;;;5075512;28;20049;-40
2022/11/16 06:05:55;;;;;;;45.60;26.33;;;10.70;99.90;;;;;;5075831;28;20438;-40
2022/11/16 06:08:21;;;;;;;46.17;26.58;;;9.90;99.90;;;;;;5076101;28;20045;-39
2022/11/16 06:10:46;;;;;;;39.53;24.33;;;10.40;99.90;;;;;;5076046;28;20052;-40
2022/11/16 06:13:12;;;;;;;40.15;23.65;;;10.30;99.90;;;;;;5075936;28;20072;-39
2022/11/16 06:15:38;;;;;;;40.25;24.58;;;10.20;99.90;;;;;;5075972;28;20131;-41
2022/11/16 06:18:06;;;;;;;37.72;25.20;;;10.80;99.90;;;;;;5075863;28;20457;-35
2022/11/16 06:20:32;;;;;;;41.20;25.15;;;9.90;99.90;;;;;;5075849;28;20056;-38
2022/11/16 06:22:57;;;;;;;38.03;22.98;;;10.10;99.90;;;;;;5075863;28;20060;-41
2022/11/16 06:25:23;;;;;;;32.22;20.17;;;10.00;99.90;;;;;;5075460;28;20131;-36
2022/11/16 06:27:49;;;;;;;43.17;25.42;;;10.00;99.90;;;;;;5075710;28;20123;-38
2022/11/16 06:30:15;;;;;;;46.67;26.85;;;9.90;99.90;;;;;;5074197;28;20135;-40
2022/11/16 06:32:41;;;;;;;34.95;22.52;;;10.00;99.90;;;;;;5075707;28;20398;-40
2022/11/16 06:35:07;;;;;;;26.67;18.58;;;10.90;99.90;;;;;;5075587;28;20113;-37
2022/11/16 06:37:33;;;;;;;18.52;14.57;;;10.10;99.90;;;;;;5075578;28;20093;-38
2022/11/16 06:39:59;;;;;;;22.65;16.27;;;10.70;99.90;;;;;;5074244;28;20087;-39
2022/11/16 06:42:24;;;;;;;21.98;16.88;;;9.90;99.90;;;;;;5057837;28;20056;-36
2022/11/16 06:44:50;;;;;;;25.08;18.10;;;10.90;99.90;;;;;;5075393;28;20059;-39
2022/11/16 06:47:16;;;;;;;23.33;16.90;;;10.40;99.90;;;;;;5075369;28;20127;-39
2022/11/16 06:49:42;;;;;;;22.90;18.00;;;10.30;99.90;;;;;;5074325;28;20448;-39
2022/11/16 06:52:07;;;;;;;27.05;19.15;;;10.90;99.90;;;;;;5075295;28;20486;-41
2022/11/16 06:54:33;;;;;;;26.15;19.50;;;10.70;99.90;;;;;;5075247;28;20048;-41
2022/11/16 06:56:59;;;;;;;31.27;20.88;;;10.80;99.90;;;;;;5075147;28;20044;-39
2022/11/16 06:59:24;;;;;;;30.83;21.38;;;10.00;99.90;;;;;;5074918;28;20136;-38
2022/11/16 07:01:50;;;;;;;30.15;20.45;;;10.30;99.90;;;;;;5075144;28;20044;-40
2022/11/16 07:04:16;;;;;;;28.75;20.73;;;10.10;99.90;;;;;;5075448;28;20059;-39
2022/11/16 07:06:42;;;;;;;34.10;23.08;;;9.90;99.90;;;;;;5075224;28;20044;-40
2022/11/16 07:09:08;;;;;;;42.05;25.42;;;10.80;99.90;;;;;;5073658;28;20550;-41
2022/11/16 07:11:35;;;;;;;41.25;25.90;;;10.80;99.90;;;;;;5074942;28;20041;-42
2022/11/16 07:14:01;;;;;;;37.67;25.08;;;10.80;99.90;;;;;;5073035;28;20055;-42
2022/11/16 07:16:28;;;;;;;49.30;27.98;;;10.60;99.90;;;;;;5074672;28;20141;-41
2022/11/16 07:18:58;;;;;;;60.72;30.85;;;9.80;99.90;;;;;;5073852;28;20044;-41
2022/11/16 07:21:24;;;;;;;49.08;28.00;;;10.70;99.90;;;;;;5075476;28;20067;-41
2022/11/16 07:23:50;;;;;;;42.35;26.17;;;9.80;99.90;;;;;;5074189;28;20151;-41
2022/11/16 07:26:16;;;;;;;45.60;26.52;;;10.50;99.90;;;;;;5074501;28;20537;-41
2022/11/16 07:28:42;;;;;;;41.88;25.80;;;10.70;99.90;;;;;;5074493;28;20083;-41
2022/11/16 07:31:10;;;;;;;40.25;25.02;;;10.20;99.90;;;;;;5074422;28;20080;-42
2022/11/16 07:33:38;;;;;;;44.13;26.63;;;10.50;99.90;;;;;;5075212;28;20382;-41
2022/11/16 07:36:13;;;;;;;43.42;25.42;;;9.80;99.90;;;;;;5091870;27;20447;-31
2022/11/16 07:38:39;;;;;;;46.65;26.92;;;9.80;99.90;;;;;;5091227;28;20052;-31
2022/11/16 07:41:14;;;;;;;42.72;25.02;;;9.80;99.90;;;;;;5090190;28;20102;-31
2022/11/16 07:43:39;;;;;;;46.03;26.40;;;10.00;99.90;;;;;;5091007;28;20052;-42
2022/11/16 07:46:13;;;;;;;46.08;26.13;;;9.70;99.90;;;;;;5091117;28;20058;-41
2022/11/16 07:48:41;;;;;;;41.70;25.15;;;10.00;99.90;;;;;;5041229;28;20479;-42
2022/11/16 07:51:09;;;;;;;33.28;21.52;;;10.70;99.90;;;;;;5091007;28;20093;-42
2022/11/16 07:53:36;;;;;;;34.28;20.88;;;10.40;99.90;;;;;;5089952;28;20048;-41
2022/11/16 07:56:02;;;;;;;29.42;18.58;;;9.70;99.90;;;;;;5089257;28;20111;-41
2022/11/16 07:58:30;;;;;;;29.80;17.90;;;10.50;99.90;;;;;;5091382;28;20040;-41
2022/11/16 08:01:05;;;;;;;27.17;17.60;;;9.90;99.90;;;;;;5090772;28;20056;-41
2022/11/16 08:03:32;;;;;;;32.42;20.35;;;10.60;99.90;;;;;;5090775;28;20052;-41
2022/11/16 08:06:04;;;;;;;38.78;21.25;;;10.30;99.90;;;;;;5091521;28;20410;-41
2022/11/16 08:08:30;;;;;;;38.92;21.60;;;10.30;99.90;;;;;;5090651;28;20508;-41
2022/11/16 08:11:03;;;;;;;34.53;20.33;;;9.50;99.90;;;;;;5090880;28;20052;-41
2022/11/16 08:13:32;;;;;;;45.30;22.25;;;9.60;99.90;;;;;;5069110;28;20106;-39
2022/11/16 08:16:03;;;;;;;59.05;25.83;;;10.10;99.90;;;;;;5069896;28;20487;-40
2022/11/16 08:18:29;;;;;;;61.95;30.77;;;9.50;99.90;;;;;;5069091;28;20059;-41
2022/11/16 08:20:58;;;;;;;64.25;30.40;;;9.50;99.90;;;;;;5070176;28;20573;-40
2022/11/16 08:23:24;;;;;;;67.50;33.47;;;10.10;99.90;;;;;;5070679;28;20057;-41
2022/11/16 08:25:50;;;;;;;77.18;30.45;;;10.50;99.90;;;;;;5102376;28;20107;-40
2022/11/16 08:28:16;;;;;;;82.78;31.42;;;10.50;99.90;;;;;;5070538;28;20143;-40
2022/11/16 08:30:41;;;;;;;66.90;27.95;;;10.60;99.90;;;;;;5070728;28;20124;-40
2022/11/16 08:33:08;;;;;;;62.05;28.90;;;9.90;99.90;;;;;;5070135;28;20478;-40
2022/11/16 08:35:34;;;;;;;59.50;28.13;;;9.60;99.90;;;;;;5070639;28;20056;-40
2022/11/16 08:38:00;;;;;;;55.72;27.77;;;10.70;99.90;;;;;;5069736;28;20052;-40
2022/11/16 08:40:26;;;;;;;69.78;28.77;;;9.80;99.90;;;;;;5069708;28;20056;-39
2022/11/16 08:42:55;;;;;;;65.40;28.55;;;10.30;99.90;;;;;;5069641;28;20127;-40
2022/11/16 08:45:22;;;;;;;75.35;30.98;;;10.80;99.90;;;;;;5085636;28;20498;-38
2022/11/16 08:47:48;;;;;;;76.07;31.98;;;10.40;99.90;;;;;;5056549;28;20045;-38
2022/11/16 08:50:15;;;;;;;60.85;27.80;;;10.80;99.90;;;;;;5055215;28;20206;-40
2022/11/16 08:52:41;;;;;;;59.42;27.05;;;9.80;99.90;;;;;;5056301;28;20102;-40
2022/11/16 08:55:07;;;;;;;55.47;26.60;;;10.60;99.90;;;;;;5088573;28;20045;-38
2022/11/16 08:57:33;;;;;;;49.80;24.50;;;9.70;99.90;;;;;;5056244;28;20080;-39
2022/11/16 08:59:58;;;;;;;50.80;25.95;;;10.80;99.90;;;;;;5056045;28;20045;-38
2022/11/16 09:02:24;;;;;;;49.17;23.88;;;10.70;99.90;;;;;;5056175;28;20052;-39
2022/11/16 09:04:51;;;;;;;71.20;28.27;;;9.80;99.90;;;;;;5088556;28;20053;-39
2022/11/16 09:07:17;;;;;;;46.45;24.17;;;10.30;99.90;;;;;;5055981;28;20041;-39
2022/11/16 09:09:43;;;;;;;45.78;22.85;;;10.80;99.90;;;;;;5055939;28;20059;-38
2022/11/16 09:12:09;;;;;;;51.85;26.52;;;10.90;99.90;;;;;;5055828;28;20403;-39
2022/11/16 09:14:39;;;;;;;47.58;24.10;;;10.40;99.90;;;;;;5055813;28;20041;-39
2022/11/16 09:17:05;;;;;;;45.42;23.77;;;10.50;99.90;;;;;;5039192;28;20043;-40
2022/11/16 09:19:31;;;;;;;57.78;25.52;;;10.70;99.90;;;;;;5055808;28;20145;-40
2022/11/16 09:21:56;;;;;;;41.00;22.90;;;10.90;99.90;;;;;;5056335;28;20159;-40
2022/11/16 09:24:22;;;;;;;46.78;23.52;;;10.20;99.90;;;;;;5055691;28;20116;-39
2022/11/16 09:26:48;;;;;;;43.67;23.60;;;11.10;99.90;;;;;;5055670;28;20077;-40
2022/11/16 09:29:14;;;;;;;46.25;23.52;;;11.20;99.90;;;;;;5054651;28;20099;-40
2022/11/16 09:31:40;;;;;;;52.60;25.33;;;10.30;99.90;;;;;;5054882;28;20098;-40
2022/11/16 09:34:09;;;;;;;60.58;27.45;;;10.70;99.90;;;;;;5055262;28;20060;-40
2022/11/16 09:36:34;;;;;;;48.00;25.02;;;10.90;99.90;;;;;;5055550;28;20396;-41
2022/11/16 09:39:02;;;;;;;45.58;23.85;;;10.60;99.90;;;;;;5055444;28;20049;-41
2022/11/16 09:41:58;;;;;;;44.97;23.60;;;11.30;99.90;;;;;;5055709;28;20048;-41
2022/11/16 09:44:47;;;;;;;40.65;22.52;;;10.80;99.90;;;;;;5055367;28;20052;-41
2022/11/16 09:47:43;;;;;;;43.40;23.50;;;11.40;99.90;;;;;;5055683;28;20132;-41
2022/11/16 09:50:23;;;;;;;44.58;25.40;;;10.60;99.90;;;;;;5053863;28;20060;-41
2022/11/16 09:52:51;;;;;;;44.80;26.83;;;11.40;99.90;;;;;;5055255;28;20145;-41
2022/11/16 09:55:50;;;;;;;41.50;23.75;;;10.70;99.90;;;;;;5053930;28;20110;-41
2022/11/16 09:58:22;;;;;;;34.65;22.10;;;10.60;99.90;;;;;;5054121;28;20037;-41
2022/11/16 10:00:55;;;;;;;37.70;22.45;;;11.40;99.90;;;;;;5055630;28;20057;-41
2022/11/16 10:03:23;;;;;;;36.53;23.55;;;10.90;99.90;;;;;;5055893;28;20049;-41
2022/11/16 10:06:06;;;;;;;39.88;25.40;;;11.50;99.90;;;;;;5055757;28;20118;-41
2022/11/16 10:08:46;;;;;;;33.42;21.52;;;11.70;99.90;;;;;;5088096;28;20049;-42
2022/11/16 10:11:29;;;;;;;32.67;21.55;;;11.40;99.90;;;;;;5055625;28;20051;-42
2022/11/16 10:14:20;;;;;;;37.40;23.02;;;11.00;99.90;;;;;;5055085;28;20060;-42
2022/11/16 10:17:43;;;;;;;30.88;19.73;;;11.10;99.90;;;;;;5054759;28;20095;-42
2022/11/16 10:20:29;;;;;;;28.15;19.15;;;11.00;99.90;;;;;;5012680;28;20100;-43
2022/11/16 10:23:16;;;;;;;31.17;20.40;;;11.10;99.90;;;;;;5051958;28;20056;-42
2022/11/16 10:25:51;;;;;;;28.40;20.15;;;10.80;99.90;;;;;;5055442;28;20049;-43
2022/11/16 10:29:03;;;;;;;33.35;20.63;;;10.90;99.90;;;;;;5054535;28;20049;-42
2022/11/16 10:31:29;;;;;;;29.45;20.52;;;10.80;99.90;;;;;;5012472;28;20053;-43
2022/11/16 10:33:57;;;;;;;32.72;21.80;;;11.20;99.90;;;;;;5012122;28;20492;-43
2022/11/16 10:36:26;;;;;;;29.02;20.77;;;11.30;99.90;;;;;;5033054;28;20555;-43
2022/11/16 10:38:55;;;;;;;34.33;19.83;;;11.60;99.90;;;;;;5055015;28;20048;-43
2022/11/16 10:41:29;;;;;;;29.50;19.77;;;11.70;99.90;;;;;;5052803;28;20403;-43
2022/11/16 10:43:57;;;;;;;26.33;18.23;;;11.10;99.90;;;;;;5053934;28;20080;-42
2022/11/16 10:46:29;;;;;;;25.75;17.85;;;11.60;99.90;;;;;;5086796;28;20426;-43
2022/11/16 10:49:06;;;;;;;22.73;15.82;;;11.50;99.90;;;;;;5054110;28;20052;-43
2022/11/16 10:51:32;;;;;;;25.25;17.25;;;11.20;99.90;;;;;;5054516;28;20045;-42
2022/11/16 10:53:57;;;;;;;30.30;16.33;;;11.40;99.90;;;;;;5054556;28;20123;-42
2022/11/16 10:56:40;;;;;;;24.30;16.70;;;10.90;99.90;;;;;;5054026;28;20384;-42
2022/11/16 10:59:16;;;;;;;24.83;16.00;;;11.10;99.90;;;;;;5054847;28;20052;-43
2022/11/16 11:01:56;;;;;;;20.90;14.82;;;11.40;99.90;;;;;;5054257;28;20041;-42
2022/11/16 11:04:30;;;;;;;21.27;15.52;;;11.50;99.90;;;;;;5054508;28;20454;-43
2022/11/16 11:06:57;;;;;;;21.25;14.25;;;11.30;99.90;;;;;;5053805;28;20037;-43
2022/11/16 11:09:28;;;;;;;19.67;14.15;;;11.20;99.90;;;;;;5053848;28;20049;-43
2022/11/16 11:12:37;;;;;;;20.65;12.57;;;11.30;99.90;;;;;;5053898;28;20372;-43
2022/11/16 11:15:19;;;;;;;16.85;10.57;;;11.30;99.90;;;;;;5053677;28;20041;-43
2022/11/16 11:17:46;;;;;;;12.75;8.68;;;11.50;99.90;;;;;;5054328;28;20081;-43
2022/11/16 11:20:15;;;;;;;13.60;8.95;;;11.30;99.90;;;;;;5053661;28;20045;-43
2022/11/16 11:22:48;;;;;;;15.57;9.30;;;11.40;99.90;;;;;;5053185;28;20052;-44
2022/11/16 11:25:23;;;;;;;12.90;7.90;;;11.20;99.90;;;;;;5052776;28;20514;-43
2022/11/16 11:28:01;;;;;;;10.82;7.18;;;11.30;99.90;;;;;;5052114;28;20557;-44
2022/11/16 11:30:27;;;;;;;17.60;8.20;;;11.10;99.90;;;;;;5053874;28;20049;-44
2022/11/16 11:32:53;;;;;;;12.82;8.05;;;11.10;99.90;;;;;;5069057;28;20091;-44
2022/11/16 11:35:30;;;;;;;14.57;8.05;;;11.00;99.90;;;;;;5051900;28;20053;-44
2022/11/16 11:38:00;;;;;;;12.30;9.10;;;11.00;99.90;;;;;;5053499;28;20106;-44
2022/11/16 11:40:28;;;;;;;15.50;9.80;;;11.00;99.90;;;;;;5053982;28;20045;-44
2022/11/16 11:43:00;;;;;;;18.85;9.68;;;11.10;99.90;;;;;;5053463;28;20057;-44
2022/11/16 11:45:44;;;;;;;13.13;8.52;;;11.10;99.90;;;;;;5051905;28;20442;-43
2022/11/16 11:48:46;;;;;;;13.77;8.70;;;11.10;99.90;;;;;;5053425;28;20053;-43
2022/11/16 11:51:45;;;;;;;16.40;8.85;;;11.10;99.90;;;;;;5053385;28;20045;-44
2022/11/16 11:54:33;;;;;;;14.30;9.18;;;11.20;99.90;;;;;;5053604;28;20122;-44
2022/11/16 11:57:02;;;;;;;10.70;8.00;;;11.40;99.90;;;;;;5053363;28;20096;-44
2022/11/16 11:59:29;;;;;;;14.20;8.35;;;11.50;99.90;;;;;;5053814;28;20080;-44
2022/11/16 12:02:25;;;;;;;15.75;8.70;;;11.70;99.90;;;;;;5053719;28;20041;-44
2022/11/16 12:04:59;;;;;;;10.43;7.55;;;11.80;99.90;;;;;;5053486;28;20041;-44
2022/11/16 12:07:56;;;;;;;12.13;6.60;;;11.80;99.90;;;;;;5054118;28;20056;-44
2022/11/16 12:10:30;;;;;;;10.60;5.90;;;11.70;99.90;;;;;;5052305;28;20045;-45
2022/11/16 12:13:18;;;;;;;12.57;6.30;;;11.80;99.90;;;;;;5053397;28;20080;-45
2022/11/16 12:16:07;;;;;;;9.35;4.78;;;12.20;99.90;;;;;;5053673;28;20049;-45
2022/11/16 12:19:29;;;;;;;8.90;3.95;;;12.10;99.90;;;;;;5054000;28;20099;-45
2022/11/16 12:22:15;;;;;;;6.43;3.85;;;11.80;99.90;;;;;;5055115;28;20059;-46
2022/11/16 12:25:00;;;;;;;7.95;3.15;;;11.90;99.90;;;;;;5056903;28;20431;-46
2022/11/16 12:27:43;;;;;;;8.45;2.65;;;12.20;99.90;;;;;;5056875;28;20052;-47
2022/11/16 12:30:11;;;;;;;;;;;12.40;99.90;;;;;;5057136;28;20049;-47
2022/11/16 12:32:49;;;;;;;9.60;2.53;;;;;;;;;;5056722;28;20374;-41
2022/11/16 12:35:52;;;;;;;5.22;2.47;;;12.50;99.90;;;;;;5056192;28;20056;-39
2022/11/16 12:38:38;;;;;;;10.93;3.72;;;12.70;99.90;;;;;;5052761;28;20498;-39
2022/11/16 12:41:25;;;;;;;9.05;1.95;;;12.30;99.90;;;;;;5056591;28;20556;-40
2022/11/16 12:44:17;;;;;;;9.18;2.88;;;12.40;99.90;;;;;;5056200;28;20438;-39
2022/11/16 12:47:18;;;;;;;9.43;2.47;;;12.40;99.90;;;;;;5056088;28;20060;-39
2022/11/16 12:49:43;;;;;;;9.70;1.80;;;12.70;99.90;;;;;;5056441;28;20096;-40
2022/11/16 12:52:28;;;;;;;6.30;1.90;;;12.70;99.90;;;;;;5056660;28;20088;-40
2022/11/16 12:55:23;;;;;;;6.22;2.35;;;12.80;99.90;;;;;;5056845;28;20106;-41
2022/11/16 12:58:26;;;;;;;6.03;1.50;;;12.80;99.90;;;;;;5055948;28;20436;-40
2022/11/16 13:01:12;;;;;;;6.55;1.80;;;13.10;99.90;;;;;;5056326;28;20124;-41
2022/11/16 13:03:47;;;;;;;6.88;1.27;;;13.00;99.90;;;;;;5056181;28;20512;-43
2022/11/16 13:06:20;;;;;;;6.22;1.45;;;13.20;99.90;;;;;;5056728;28;20041;-43
2022/11/16 13:09:04;;;;;;;8.60;1.83;;;13.10;99.90;;;;;;5056338;28;20403;-43
2022/11/16 13:11:40;;;;;;;6.03;2.42;;;12.80;99.90;;;;;;5039116;28;20080;-43
2022/11/16 13:14:14;;;;;;;6.07;1.83;;;12.90;99.90;;;;;;5055907;28;20048;-44
2022/11/16 13:16:40;;;;;;;8.85;1.98;;;13.00;99.90;;;;;;5055930;28;20492;-44
2022/11/16 13:19:09;;;;;;;8.45;1.75;;;12.50;99.90;;;;;;5055873;28;20088;-44
2022/11/16 13:21:52;;;;;;;8.90;2.00;;;12.20;99.90;;;;;;5056361;28;20088;-48
2022/11/16 13:24:34;;;;;;;8.40;2.03;;;12.10;99.90;;;;;;5038513;28;20139;-45
2022/11/16 13:27:15;;;;;;;8.00;1.70;;;12.10;99.90;;;;;;5055385;28;20418;-45
2022/11/16 13:29:49;;;;;;;6.28;1.67;;;12.40;99.90;;;;;;5055717;28;20048;-44
2022/11/16 13:32:31;;;;;;;5.70;1.63;;;12.30;99.90;;;;;;5054331;28;20049;-47
2022/11/16 13:34:58;;;;;;;8.05;1.40;;;12.30;99.90;;;;;;5087990;28;20056;-49
2022/11/16 13:37:36;;;;;;;9.07;1.30;;;12.20;99.90;;;;;;5054103;28;20565;-50